sensor_id;sensor_type;location;lat;lon;timestamp;temperature;humidity
28835;DHT22;15969;51.536;11.884;2023-04-07T02:29:20;0.90;99.90
28835;DHT22;15969;51.536;11.884;2023-04-07T02:31:46;1.00;99.90
28835;DHT22;15969;51.536;11.884;2023-04-07T02:34:11;1.00;99.90
28835;DHT22;15969;51.536;11.884;2023-04-07T02:36:37;1.00;99.90
28835;DHT22;15969;51.536;11.884;2023-04-07T02:39:03;1.00;99.90
28835;DHT22;15969;51.536;11.884;2023-04-07T02:41:28;1.00;99.90
28835;DHT22;15969;51.536;11.884;2023-04-07T02:43:54;1.00;99.90
28835;DHT22;15969;51.536;11.884;2023-04-07T02:46:20;1.00;99.90
28835;DHT22;15969;51.536;11.884;2023-04-07T02:48:46;0.80;99.90
28835;DHT22;15969;51.536;11.884;2023-04-07T02:51:11;0.80;99.90
28835;DHT22;15969;51.536;11.884;2023-04-07T02:53:37;0.80;99.90
28835;DHT22;15969;51.536;11.884;2023-04-07T02:56:03;0.70;99.90
28835;DHT22;15969;51.536;11.884;2023-04-07T02:58:28;0.80;99.90
28835;DHT22;15969;51.536;11.884;2023-04-07T03:00:54;0.90;99.90
28835;DHT22;15969;51.536;11.884;2023-04-07T03:03:20;0.80;99.90
28835;DHT22;15969;51.536;11.884;2023-04-07T03:05:45;0.90;99.90
28835;DHT22;15969;51.536;11.884;2023-04-07T03:08:11;1.00;99.90
28835;DHT22;15969;51.536;11.884;2023-04-07T03:10:37;1.00;99.90
28835;DHT22;15969;51.536;11.884;2023-04-07T03:13:02;1.00;99.90
28835;DHT22;15969;51.536;11.884;2023-04-07T03:15:28;1.00;99.90
28835;DHT22;15969;51.536;11.884;2023-04-07T03:17:54;0.90;99.90
28835;DHT22;15969;51.536;11.884;2023-04-07T03:20:19;0.90;99.90
28835;DHT22;15969;51.536;11.884;2023-04-07T03:22:45;0.80;99.90
28835;DHT22;15969;51.536;11.884;2023-04-07T03:25:12;0.90;99.90
28835;DHT22;15969;51.536;11.884;2023-04-07T03:27:37;0.80;99.90
28835;DHT22;15969;51.536;11.884;2023-04-07T03:30:03;0.80;99.90
28835;DHT22;15969;51.536;11.884;2023-04-07T03:32:29;0.60;99.90
28835;DHT22;15969;51.536;11.884;2023-04-07T03:34:55;0.60;99.90
28835;DHT22;15969;51.536;11.884;2023-04-07T03:37:21;0.50;99.90
28835;DHT22;15969;51.536;11.884;2023-04-07T03:39:47;0.40;99.90
28835;DHT22;15969;51.536;11.884;2023-04-07T03:42:12;0.50;99.90
28835;DHT22;15969;51.536;11.884;2023-04-07T03:44:38;0.50;99.90
28835;DHT22;15969;51.536;11.884;2023-04-07T03:47:04;0.50;99.90
28835;DHT22;15969;51.536;11.884;2023-04-07T03:49:30;0.60;99.90
28835;DHT22;15969;51.536;11.884;2023-04-07T03:51:56;0.60;99.90
28835;DHT22;15969;51.536;11.884;2023-04-07T03:54:22;0.50;99.90
28835;DHT22;15969;51.536;11.884;2023-04-07T03:56:48;0.50;99.90
28835;DHT22;15969;51.536;11.884;2023-04-07T03:59:14;0.50;99.90
28835;DHT22;15969;51.536;11.884;2023-04-07T04:01:39;0.50;99.90
28835;DHT22;15969;51.536;11.884;2023-04-07T04:04:05;0.60;99.90
28835;DHT22;15969;51.536;11.884;2023-04-07T04:06:31;0.50;99.90
28835;DHT22;15969;51.536;11.884;2023-04-07T04:08:56;0.60;99.90
28835;DHT22;15969;51.536;11.884;2023-04-07T04:11:22;0.70;99.90
28835;DHT22;15969;51.536;11.884;2023-04-07T04:13:48;0.70;99.90
28835;DHT22;15969;51.536;11.884;2023-04-07T04:16:14;0.70;99.90
28835;DHT22;15969;51.536;11.884;2023-04-07T04:18:39;0.80;99.90
28835;DHT22;15969;51.536;11.884;2023-04-07T04:21:05;0.80;99.90
28835;DHT22;15969;51.536;11.884;2023-04-07T04:23:32;0.70;99.90
28835;DHT22;15969;51.536;11.884;2023-04-07T04:25:57;0.70;99.90
28835;DHT22;15969;51.536;11.884;2023-04-07T04:28:24;0.70;99.90
28835;DHT22;15969;51.536;11.884;2023-04-07T04:30:50;0.70;99.90
28835;DHT22;15969;51.536;11.884;2023-04-07T04:33:16;0.70;99.90
28835;DHT22;15969;51.536;11.884;2023-04-07T04:35:42;0.60;99.90
28835;DHT22;15969;51.536;11.884;2023-04-07T04:38:09;0.50;99.90
28835;DHT22;15969;51.536;11.884;2023-04-07T04:40:35;0.40;99.90
28835;DHT22;15969;51.536;11.884;2023-04-07T04:43:00;0.30;99.90
28835;DHT22;15969;51.536;11.884;2023-04-07T04:45:31;0.20;99.90
28835;DHT22;15969;51.536;11.884;2023-04-07T04:47:57;0.20;99.90
28835;DHT22;15969;51.536;11.884;2023-04-07T04:50:23;0.10;99.90
28835;DHT22;15969;51.536;11.884;2023-04-07T04:52:48;0.00;99.90
28835;DHT22;15969;51.536;11.884;2023-04-07T04:55:14;0.00;99.90
28835;DHT22;15969;51.536;11.884;2023-04-07T04:57:40;-0.10;99.90
28835;DHT22;15969;51.536;11.884;2023-04-07T05:00:07;-0.10;99.90
28835;DHT22;15969;51.536;11.884;2023-04-07T05:02:33;-0.10;99.90
28835;DHT22;15969;51.536;11.884;2023-04-07T05:04:58;0.00;99.90
28835;DHT22;15969;51.536;11.884;2023-04-07T05:07:24;-0.10;99.90
28835;DHT22;15969;51.536;11.884;2023-04-07T05:09:50;-0.10;99.90
28835;DHT22;15969;51.536;11.884;2023-04-07T05:12:16;0.00;99.90
28835;DHT22;15969;51.536;11.884;2023-04-07T05:14:41;-0.10;99.90
28835;DHT22;15969;51.536;11.884;2023-04-07T05:17:07;-0.10;99.90
28835;DHT22;15969;51.536;11.884;2023-04-07T05:19:33;-0.10;99.90
28835;DHT22;15969;51.536;11.884;2023-04-07T05:21:58;0.00;99.90
28835;DHT22;15969;51.536;11.884;2023-04-07T05:24:28;0.10;99.90
28835;DHT22;15969;51.536;11.884;2023-04-07T05:26:54;0.20;99.90
28835;DHT22;15969;51.536;11.884;2023-04-07T05:29:21;0.20;99.90
28835;DHT22;15969;51.536;11.884;2023-04-07T05:31:47;0.20;99.90
28835;DHT22;15969;51.536;11.884;2023-04-07T05:34:13;0.30;99.90
28835;DHT22;15969;51.536;11.884;2023-04-07T05:36:38;0.40;99.90
28835;DHT22;15969;51.536;11.884;2023-04-07T05:39:04;0.50;99.90
28835;DHT22;15969;51.536;11.884;2023-04-07T05:41:30;0.60;99.90
28835;DHT22;15969;51.536;11.884;2023-04-07T05:43:56;0.70;99.90
28835;DHT22;15969;51.536;11.884;2023-04-07T05:46:21;0.70;99.90
28835;DHT22;15969;51.536;11.884;2023-04-07T05:48:47;0.70;99.90
28835;DHT22;15969;51.536;11.884;2023-04-07T05:51:13;0.70;99.90
28835;DHT22;15969;51.536;11.884;2023-04-07T05:53:39;0.70;99.90
28835;DHT22;15969;51.536;11.884;2023-04-07T05:56:05;0.70;99.90
28835;DHT22;15969;51.536;11.884;2023-04-07T05:58:31;0.80;99.90
28835;DHT22;15969;51.536;11.884;2023-04-07T06:00:57;1.10;99.90
28835;DHT22;15969;51.536;11.884;2023-04-07T06:03:22;1.20;99.90
28835;DHT22;15969;51.536;11.884;2023-04-07T06:05:49;1.20;99.90
28835;DHT22;15969;51.536;11.884;2023-04-07T06:08:14;1.50;99.90
28835;DHT22;15969;51.536;11.884;2023-04-07T06:10:40;1.70;99.90
28835;DHT22;15969;51.536;11.884;2023-04-07T06:13:06;2.00;99.90
28835;DHT22;15969;51.536;11.884;2023-04-07T06:15:32;2.20;99.90
28835;DHT22;15969;51.536;11.884;2023-04-07T06:17:58;2.40;99.90
28835;DHT22;15969;51.536;11.884;2023-04-07T06:20:23;2.60;99.90
28835;DHT22;15969;51.536;11.884;2023-04-07T06:22:49;2.70;99.90
28835;DHT22;15969;51.536;11.884;2023-04-07T06:25:15;2.90;99.90
28835;DHT22;15969;51.536;11.884;2023-04-07T06:27:41;3.00;99.90
28835;DHT22;15969;51.536;11.884;2023-04-07T06:30:07;3.10;99.90
28835;DHT22;15969;51.536;11.884;2023-04-07T06:32:33;3.20;99.90
28835;DHT22;15969;51.536;11.884;2023-04-07T06:35:00;3.30;99.90
28835;DHT22;15969;51.536;11.884;2023-04-07T06:37:26;3.40;99.90
28835;DHT22;15969;51.536;11.884;2023-04-07T06:39:51;3.40;99.90
28835;DHT22;15969;51.536;11.884;2023-04-07T06:42:17;3.50;99.90
28835;DHT22;15969;51.536;11.884;2023-04-07T06:44:43;3.60;99.90
28835;DHT22;15969;51.536;11.884;2023-04-07T06:47:08;3.60;99.90
28835;DHT22;15969;51.536;11.884;2023-04-07T06:49:34;3.70;99.90
28835;DHT22;15969;51.536;11.884;2023-04-07T06:52:00;3.90;99.90
28835;DHT22;15969;51.536;11.884;2023-04-07T06:54:26;4.00;99.90
28835;DHT22;15969;51.536;11.884;2023-04-07T06:56:51;4.20;99.90
28835;DHT22;15969;51.536;11.884;2023-04-07T06:59:17;4.40;99.90
28835;DHT22;15969;51.536;11.884;2023-04-07T07:01:43;4.50;99.90
28835;DHT22;15969;51.536;11.884;2023-04-07T07:04:09;4.70;99.90
28835;DHT22;15969;51.536;11.884;2023-04-07T07:06:35;5.00;99.90
28835;DHT22;15969;51.536;11.884;2023-04-07T07:09:01;5.10;99.90
28835;DHT22;15969;51.536;11.884;2023-04-07T07:11:28;5.30;99.90
28835;DHT22;15969;51.536;11.884;2023-04-07T07:13:54;5.30;99.90
28835;DHT22;15969;51.536;11.884;2023-04-07T07:16:19;5.50;99.90
28835;DHT22;15969;51.536;11.884;2023-04-07T07:18:48;5.60;99.90
28835;DHT22;15969;51.536;11.884;2023-04-07T07:21:16;5.70;99.90
28835;DHT22;15969;51.536;11.884;2023-04-07T07:23:42;5.80;99.90
28835;DHT22;15969;51.536;11.884;2023-04-07T07:26:09;5.90;99.90
28835;DHT22;15969;51.536;11.884;2023-04-07T07:28:34;6.00;98.60
28835;DHT22;15969;51.536;11.884;2023-04-07T07:31:06;6.10;98.70
28835;DHT22;15969;51.536;11.884;2023-04-07T07:33:34;6.40;98.00
28835;DHT22;15969;51.536;11.884;2023-04-07T07:36:00;6.50;97.50
28835;DHT22;15969;51.536;11.884;2023-04-07T07:38:25;6.60;96.10
28835;DHT22;15969;51.536;11.884;2023-04-07T07:40:52;6.80;96.50
28835;DHT22;15969;51.536;11.884;2023-04-07T07:43:17;6.90;96.60
28835;DHT22;15969;51.536;11.884;2023-04-07T07:45:43;7.00;96.60
28835;DHT22;15969;51.536;11.884;2023-04-07T07:48:09;7.10;96.40
28835;DHT22;15969;51.536;11.884;2023-04-07T07:50:35;7.10;95.20
28835;DHT22;15969;51.536;11.884;2023-04-07T07:53:01;7.10;94.80
28835;DHT22;15969;51.536;11.884;2023-04-07T07:55:26;7.30;94.90
28835;DHT22;15969;51.536;11.884;2023-04-07T07:57:52;7.40;94.50
28835;DHT22;15969;51.536;11.884;2023-04-07T08:00:18;7.40;94.80
28835;DHT22;15969;51.536;11.884;2023-04-07T08:02:44;7.60;94.80
28835;DHT22;15969;51.536;11.884;2023-04-07T08:05:09;7.70;93.80
28835;DHT22;15969;51.536;11.884;2023-04-07T08:07:35;7.80;93.00
28835;DHT22;15969;51.536;11.884;2023-04-07T08:10:02;7.80;92.70
28835;DHT22;15969;51.536;11.884;2023-04-07T08:12:27;7.80;92.70
28835;DHT22;15969;51.536;11.884;2023-04-07T08:14:53;7.90;92.50
28835;DHT22;15969;51.536;11.884;2023-04-07T08:17:19;8.00;92.30
28835;DHT22;15969;51.536;11.884;2023-04-07T08:19:45;8.00;92.00
28835;DHT22;15969;51.536;11.884;2023-04-07T08:22:10;8.10;91.40
28835;DHT22;15969;51.536;11.884;2023-04-07T08:24:36;8.20;91.10
28835;DHT22;15969;51.536;11.884;2023-04-07T08:27:02;8.30;91.60
28835;DHT22;15969;51.536;11.884;2023-04-07T08:29:27;8.40;92.70
28835;DHT22;15969;51.536;11.884;2023-04-07T08:31:53;8.50;91.20
28835;DHT22;15969;51.536;11.884;2023-04-07T08:34:19;8.60;90.70
28835;DHT22;15969;51.536;11.884;2023-04-07T08:36:45;8.70;89.10
28835;DHT22;15969;51.536;11.884;2023-04-07T08:39:11;8.80;89.20
28835;DHT22;15969;51.536;11.884;2023-04-07T08:41:39;8.90;85.80
28835;DHT22;15969;51.536;11.884;2023-04-07T08:44:06;9.00;86.00
28835;DHT22;15969;51.536;11.884;2023-04-07T08:46:33;9.00;85.80
28835;DHT22;15969;51.536;11.884;2023-04-07T08:49:00;9.10;84.00
28835;DHT22;15969;51.536;11.884;2023-04-07T08:51:31;9.20;85.00
28835;DHT22;15969;51.536;11.884;2023-04-07T08:54:15;9.30;84.10
28835;DHT22;15969;51.536;11.884;2023-04-07T08:56:43;9.40;82.10
28835;DHT22;15969;51.536;11.884;2023-04-07T08:59:11;9.40;82.20
28835;DHT22;15969;51.536;11.884;2023-04-07T09:01:39;9.50;84.40
28835;DHT22;15969;51.536;11.884;2023-04-07T09:04:06;9.50;82.90
28835;DHT22;15969;51.536;11.884;2023-04-07T09:06:34;9.60;84.20
28835;DHT22;15969;51.536;11.884;2023-04-07T09:09:00;9.70;82.10
28835;DHT22;15969;51.536;11.884;2023-04-07T09:11:27;9.80;82.30
28835;DHT22;15969;51.536;11.884;2023-04-07T09:13:54;9.80;80.20
28835;DHT22;15969;51.536;11.884;2023-04-07T09:16:20;9.90;80.80
28835;DHT22;15969;51.536;11.884;2023-04-07T09:18:48;10.00;80.80
28835;DHT22;15969;51.536;11.884;2023-04-07T09:21:13;10.00;76.40
28835;DHT22;15969;51.536;11.884;2023-04-07T09:23:40;10.00;78.10
28835;DHT22;15969;51.536;11.884;2023-04-07T09:26:23;10.10;78.10
28835;DHT22;15969;51.536;11.884;2023-04-07T09:29:00;10.30;78.50
28835;DHT22;15969;51.536;11.884;2023-04-07T09:31:50;10.40;76.20
28835;DHT22;15969;51.536;11.884;2023-04-07T09:34:24;10.50;77.20
28835;DHT22;15969;51.536;11.884;2023-04-07T09:36:51;10.60;75.80
28835;DHT22;15969;51.536;11.884;2023-04-07T09:39:16;10.60;73.20
28835;DHT22;15969;51.536;11.884;2023-04-07T09:41:42;10.70;74.70
28835;DHT22;15969;51.536;11.884;2023-04-07T09:44:09;10.80;73.60
28835;DHT22;15969;51.536;11.884;2023-04-07T09:46:35;10.80;70.90
28835;DHT22;15969;51.536;11.884;2023-04-07T09:49:13;10.90;71.50
28835;DHT22;15969;51.536;11.884;2023-04-07T09:52:01;11.00;72.40
28835;DHT22;15969;51.536;11.884;2023-04-07T09:54:40;11.00;72.50
28835;DHT22;15969;51.536;11.884;2023-04-07T09:57:10;11.10;72.60
28835;DHT22;15969;51.536;11.884;2023-04-07T09:59:38;11.10;71.50
28835;DHT22;15969;51.536;11.884;2023-04-07T10:02:07;11.10;71.50
28835;DHT22;15969;51.536;11.884;2023-04-07T10:04:33;11.20;70.20
28835;DHT22;15969;51.536;11.884;2023-04-07T10:06:59;11.30;71.20
28835;DHT22;15969;51.536;11.884;2023-04-07T10:09:29;11.40;69.90
28835;DHT22;15969;51.536;11.884;2023-04-07T10:11:56;11.50;69.60
28835;DHT22;15969;51.536;11.884;2023-04-07T10:14:27;11.60;68.80
28835;DHT22;15969;51.536;11.884;2023-04-07T10:16:56;11.70;67.10
28835;DHT22;15969;51.536;11.884;2023-04-07T10:19:30;11.80;67.80
28835;DHT22;15969;51.536;11.884;2023-04-07T10:21:58;12.00;68.30
28835;DHT22;15969;51.536;11.884;2023-04-07T10:24:44;12.10;67.80
28835;DHT22;15969;51.536;11.884;2023-04-07T10:27:24;12.10;67.20
28835;DHT22;15969;51.536;11.884;2023-04-07T10:29:54;12.20;68.40
28835;DHT22;15969;51.536;11.884;2023-04-07T10:32:22;12.30;68.90
28835;DHT22;15969;51.536;11.884;2023-04-07T10:35:11;12.40;69.10
28835;DHT22;15969;51.536;11.884;2023-04-07T10:41:38;12.70;66.60
28835;DHT22;15969;51.536;11.884;2023-04-07T10:44:07;12.90;66.00
28835;DHT22;15969;51.536;11.884;2023-04-07T10:49:13;13.20;65.50
28835;DHT22;15969;51.536;11.884;2023-04-07T10:51:40;13.40;65.60
28835;DHT22;15969;51.536;11.884;2023-04-07T10:54:20;13.50;65.30
28835;DHT22;15969;51.536;11.884;2023-04-07T10:59:28;13.90;64.80
28835;DHT22;15969;51.536;11.884;2023-04-07T11:04:41;14.10;65.00
28835;DHT22;15969;51.536;11.884;2023-04-07T11:07:11;14.20;65.30
28835;DHT22;15969;51.536;11.884;2023-04-07T11:09:38;14.40;63.60
28835;DHT22;15969;51.536;11.884;2023-04-07T11:12:05;14.50;62.00
28835;DHT22;15969;51.536;11.884;2023-04-07T11:14:32;14.60;63.90
28835;DHT22;15969;51.536;11.884;2023-04-07T11:16:59;14.70;60.70
28835;DHT22;15969;51.536;11.884;2023-04-07T11:19:26;14.80;60.80
28835;DHT22;15969;51.536;11.884;2023-04-07T11:22:17;14.80;59.80
28835;DHT22;15969;51.536;11.884;2023-04-07T11:24:45;15.00;60.70
28835;DHT22;15969;51.536;11.884;2023-04-07T11:27:14;14.70;59.10
28835;DHT22;15969;51.536;11.884;2023-04-07T11:29:41;14.90;61.60
28835;DHT22;15969;51.536;11.884;2023-04-07T11:32:07;14.90;58.30
28835;DHT22;15969;51.536;11.884;2023-04-07T11:34:35;15.00;60.50
28835;DHT22;15969;51.536;11.884;2023-04-07T11:37:20;15.10;60.00
28835;DHT22;15969;51.536;11.884;2023-04-07T11:39:54;15.20;60.40
28835;DHT22;15969;51.536;11.884;2023-04-07T11:42:39;15.40;59.70
28835;DHT22;15969;51.536;11.884;2023-04-07T11:45:15;15.50;60.30
28835;DHT22;15969;51.536;11.884;2023-04-07T11:47:42;15.50;58.80
28835;DHT22;15969;51.536;11.884;2023-04-07T11:50:08;15.60;59.10
28835;DHT22;15969;51.536;11.884;2023-04-07T11:52:45;15.60;59.30
28835;DHT22;15969;51.536;11.884;2023-04-07T11:55:21;15.70;59.10
28835;DHT22;15969;51.536;11.884;2023-04-07T11:57:50;15.60;58.30
28835;DHT22;15969;51.536;11.884;2023-04-07T12:00:16;15.60;58.90
28835;DHT22;15969;51.536;11.884;2023-04-07T12:02:43;15.90;58.30
28835;DHT22;15969;51.536;11.884;2023-04-07T12:05:09;16.10;58.30
28835;DHT22;15969;51.536;11.884;2023-04-07T12:07:36;15.90;58.10
28835;DHT22;15969;51.536;11.884;2023-04-07T12:10:22;16.30;57.30
28835;DHT22;15969;51.536;11.884;2023-04-07T12:12:50;16.50;57.50
28835;DHT22;15969;51.536;11.884;2023-04-07T12:15:16;16.60;55.00
28835;DHT22;15969;51.536;11.884;2023-04-07T12:17:46;16.80;56.00
28835;DHT22;15969;51.536;11.884;2023-04-07T12:20:13;16.80;55.30
28835;DHT22;15969;51.536;11.884;2023-04-07T12:22:40;16.80;57.00
28835;DHT22;15969;51.536;11.884;2023-04-07T12:25:06;16.80;56.20
28835;DHT22;15969;51.536;11.884;2023-04-07T12:27:32;16.60;55.50
28835;DHT22;15969;51.536;11.884;2023-04-07T12:29:58;16.80;57.30
28835;DHT22;15969;51.536;11.884;2023-04-07T12:32:23;16.50;58.10
28835;DHT22;15969;51.536;11.884;2023-04-07T12:34:50;16.00;56.80
28835;DHT22;15969;51.536;11.884;2023-04-07T12:37:15;16.20;57.20
28835;DHT22;15969;51.536;11.884;2023-04-07T12:39:41;16.30;56.50
28835;DHT22;15969;51.536;11.884;2023-04-07T12:42:07;16.40;55.90
28835;DHT22;15969;51.536;11.884;2023-04-07T12:44:36;16.70;58.30
28835;DHT22;15969;51.536;11.884;2023-04-07T12:47:02;16.70;54.60
28835;DHT22;15969;51.536;11.884;2023-04-07T12:49:28;17.20;54.90
28835;DHT22;15969;51.536;11.884;2023-04-07T12:51:54;17.30;53.70
28835;DHT22;15969;51.536;11.884;2023-04-07T12:54:20;17.50;53.60
28835;DHT22;15969;51.536;11.884;2023-04-07T12:56:46;17.60;50.70
28835;DHT22;15969;51.536;11.884;2023-04-07T12:59:12;17.80;52.30
28835;DHT22;15969;51.536;11.884;2023-04-07T13:01:38;17.90;52.80
28835;DHT22;15969;51.536;11.884;2023-04-07T13:04:04;18.20;52.80
28835;DHT22;15969;51.536;11.884;2023-04-07T13:06:31;18.30;51.30
28835;DHT22;15969;51.536;11.884;2023-04-07T13:08:57;18.40;50.50
28835;DHT22;15969;51.536;11.884;2023-04-07T13:11:22;18.70;51.40
28835;DHT22;15969;51.536;11.884;2023-04-07T13:13:48;18.70;50.40
28835;DHT22;15969;51.536;11.884;2023-04-07T13:16:14;18.70;50.10
28835;DHT22;15969;51.536;11.884;2023-04-07T13:18:39;17.50;50.70
28835;DHT22;15969;51.536;11.884;2023-04-07T13:21:05;18.10;51.10
28835;DHT22;15969;51.536;11.884;2023-04-07T13:23:31;17.60;51.30
28835;DHT22;15969;51.536;11.884;2023-04-07T13:25:57;17.50;52.40
28835;DHT22;15969;51.536;11.884;2023-04-07T13:28:22;17.70;51.30
28835;DHT22;15969;51.536;11.884;2023-04-07T13:30:48;17.90;51.60
28835;DHT22;15969;51.536;11.884;2023-04-07T13:33:14;17.90;52.10
28835;DHT22;15969;51.536;11.884;2023-04-07T13:35:39;18.20;52.50
28835;DHT22;15969;51.536;11.884;2023-04-07T13:38:05;18.50;50.90
28835;DHT22;15969;51.536;11.884;2023-04-07T13:40:31;18.30;50.10
28835;DHT22;15969;51.536;11.884;2023-04-07T13:42:56;18.60;50.50
28835;DHT22;15969;51.536;11.884;2023-04-07T13:45:23;19.00;49.80
28835;DHT22;15969;51.536;11.884;2023-04-07T13:47:48;19.00;49.60
28835;DHT22;15969;51.536;11.884;2023-04-07T13:50:14;19.30;50.00
28835;DHT22;15969;51.536;11.884;2023-04-07T13:52:40;19.70;49.00
28835;DHT22;15969;51.536;11.884;2023-04-07T13:55:06;19.90;47.90
28835;DHT22;15969;51.536;11.884;2023-04-07T13:57:32;20.00;48.20
28835;DHT22;15969;51.536;11.884;2023-04-07T13:59:58;19.60;47.40
28835;DHT22;15969;51.536;11.884;2023-04-07T14:02:24;19.60;51.30
28835;DHT22;15969;51.536;11.884;2023-04-07T14:04:52;19.70;49.30
28835;DHT22;15969;51.536;11.884;2023-04-07T14:07:18;19.90;47.90
28835;DHT22;15969;51.536;11.884;2023-04-07T14:09:44;20.10;48.20
28835;DHT22;15969;51.536;11.884;2023-04-07T14:12:10;20.40;48.00
28835;DHT22;15969;51.536;11.884;2023-04-07T14:14:36;20.20;47.10
28835;DHT22;15969;51.536;11.884;2023-04-07T14:17:02;20.50;45.00
28835;DHT22;15969;51.536;11.884;2023-04-07T14:19:28;19.90;44.60
28835;DHT22;15969;51.536;11.884;2023-04-07T14:21:54;20.30;45.30
28835;DHT22;15969;51.536;11.884;2023-04-07T14:24:20;20.80;46.20
28835;DHT22;15969;51.536;11.884;2023-04-07T14:26:46;21.10;45.30
28835;DHT22;15969;51.536;11.884;2023-04-07T14:29:13;21.40;46.90
28835;DHT22;15969;51.536;11.884;2023-04-07T14:31:39;22.00;45.90
28835;DHT22;15969;51.536;11.884;2023-04-07T14:34:05;24.40;44.00
28835;DHT22;15969;51.536;11.884;2023-04-07T14:36:34;27.50;40.10
28835;DHT22;15969;51.536;11.884;2023-04-07T14:38:59;30.00;38.30
28835;DHT22;15969;51.536;11.884;2023-04-07T14:41:26;32.20;34.60
28835;DHT22;15969;51.536;11.884;2023-04-07T14:43:52;33.40;33.70
28835;DHT22;15969;51.536;11.884;2023-04-07T14:46:23;34.60;32.10
28835;DHT22;15969;51.536;11.884;2023-04-07T14:48:51;36.20;29.60
28835;DHT22;15969;51.536;11.884;2023-04-07T14:53:43;38.30;27.70
28835;DHT22;15969;51.536;11.884;2023-04-07T14:56:17;39.20;27.70
28835;DHT22;15969;51.536;11.884;2023-04-07T15:01:09;38.20;26.20
28835;DHT22;15969;51.536;11.884;2023-04-07T15:03:35;39.60;27.00
28835;DHT22;15969;51.536;11.884;2023-04-07T15:06:01;39.90;26.00
28835;DHT22;15969;51.536;11.884;2023-04-07T15:08:30;40.30;25.70
28835;DHT22;15969;51.536;11.884;2023-04-07T15:10:56;38.10;26.10
28835;DHT22;15969;51.536;11.884;2023-04-07T15:13:22;39.80;25.40
28835;DHT22;15969;51.536;11.884;2023-04-07T15:18:13;41.00;24.50
28835;DHT22;15969;51.536;11.884;2023-04-07T15:20:39;40.90;24.90
28835;DHT22;15969;51.536;11.884;2023-04-07T15:23:05;41.10;25.00
28835;DHT22;15969;51.536;11.884;2023-04-07T15:25:31;41.10;24.30
28835;DHT22;15969;51.536;11.884;2023-04-07T15:27:56;41.30;24.30
28835;DHT22;15969;51.536;11.884;2023-04-07T15:30:22;41.30;24.50
28835;DHT22;15969;51.536;11.884;2023-04-07T15:33:02;41.50;23.90
28835;DHT22;15969;51.536;11.884;2023-04-07T15:35:29;41.80;24.10
28835;DHT22;15969;51.536;11.884;2023-04-07T15:37:54;40.60;24.00
28835;DHT22;15969;51.536;11.884;2023-04-07T15:40:20;38.70;24.60
28835;DHT22;15969;51.536;11.884;2023-04-07T15:42:46;36.60;25.20
28835;DHT22;15969;51.536;11.884;2023-04-07T15:45:12;34.80;25.40
28835;DHT22;15969;51.536;11.884;2023-04-07T15:47:37;32.70;26.40
28835;DHT22;15969;51.536;11.884;2023-04-07T15:50:03;31.40;27.40
28835;DHT22;15969;51.536;11.884;2023-04-07T15:52:29;30.70;28.70
28835;DHT22;15969;51.536;11.884;2023-04-07T15:54:55;29.80;29.00
28835;DHT22;15969;51.536;11.884;2023-04-07T15:57:21;29.80;29.20
28835;DHT22;15969;51.536;11.884;2023-04-07T15:59:47;30.00;29.30
28835;DHT22;15969;51.536;11.884;2023-04-07T16:02:13;29.90;29.10
28835;DHT22;15969;51.536;11.884;2023-04-07T16:04:39;29.70;28.70
28835;DHT22;15969;51.536;11.884;2023-04-07T16:07:05;29.00;29.90
28835;DHT22;15969;51.536;11.884;2023-04-07T16:09:31;28.00;30.20
28835;DHT22;15969;51.536;11.884;2023-04-07T16:11:58;26.80;31.00
28835;DHT22;15969;51.536;11.884;2023-04-07T16:14:24;26.00;33.20
28835;DHT22;15969;51.536;11.884;2023-04-07T16:16:53;25.50;34.30
28835;DHT22;15969;51.536;11.884;2023-04-07T16:19:23;24.50;34.20
28835;DHT22;15969;51.536;11.884;2023-04-07T16:21:50;24.00;36.40
28835;DHT22;15969;51.536;11.884;2023-04-07T16:24:16;23.10;36.60
28835;DHT22;15969;51.536;11.884;2023-04-07T16:26:42;22.80;37.50
28835;DHT22;15969;51.536;11.884;2023-04-07T16:29:07;22.50;38.30
28835;DHT22;15969;51.536;11.884;2023-04-07T16:31:33;22.20;39.60
28835;DHT22;15969;51.536;11.884;2023-04-07T16:33:59;20.60;39.50
28835;DHT22;15969;51.536;11.884;2023-04-07T16:36:24;20.20;40.10
28835;DHT22;15969;51.536;11.884;2023-04-07T16:38:50;19.00;41.10
28835;DHT22;15969;51.536;11.884;2023-04-07T16:41:16;18.80;42.80
28835;DHT22;15969;51.536;11.884;2023-04-07T16:43:42;18.60;43.80
28835;DHT22;15969;51.536;11.884;2023-04-07T16:46:07;18.30;43.80
28835;DHT22;15969;51.536;11.884;2023-04-07T16:48:33;16.80;42.20
28835;DHT22;15969;51.536;11.884;2023-04-07T16:50:59;16.50;45.00
28835;DHT22;15969;51.536;11.884;2023-04-07T16:53:24;15.30;45.60
28835;DHT22;15969;51.536;11.884;2023-04-07T16:55:50;15.40;47.10
28835;DHT22;15969;51.536;11.884;2023-04-07T16:58:16;15.20;46.70
28835;DHT22;15969;51.536;11.884;2023-04-07T17:00:43;14.30;46.10
28835;DHT22;15969;51.536;11.884;2023-04-07T17:03:09;14.10;47.90
28835;DHT22;15969;51.536;11.884;2023-04-07T17:05:35;14.50;48.70
28835;DHT22;15969;51.536;11.884;2023-04-07T17:08:00;13.80;47.80
28835;DHT22;15969;51.536;11.884;2023-04-07T17:10:26;13.70;48.00
28835;DHT22;15969;51.536;11.884;2023-04-07T17:12:52;14.10;48.60
28835;DHT22;15969;51.536;11.884;2023-04-07T17:15:21;14.00;47.70
28835;DHT22;15969;51.536;11.884;2023-04-07T17:17:48;13.80;47.30
28835;DHT22;15969;51.536;11.884;2023-04-07T17:20:14;13.90;47.70
28835;DHT22;15969;51.536;11.884;2023-04-07T17:22:43;14.10;47.90
28835;DHT22;15969;51.536;11.884;2023-04-07T17:25:09;14.20;49.60
28835;DHT22;15969;51.536;11.884;2023-04-07T17:27:35;14.10;49.10
28835;DHT22;15969;51.536;11.884;2023-04-07T17:30:01;13.20;47.80
28835;DHT22;15969;51.536;11.884;2023-04-07T17:32:28;12.50;50.00
28835;DHT22;15969;51.536;11.884;2023-04-07T17:34:53;12.30;50.30
28835;DHT22;15969;51.536;11.884;2023-04-07T17:37:19;12.10;52.10
28835;DHT22;15969;51.536;11.884;2023-04-07T17:39:45;11.80;50.60
28835;DHT22;15969;51.536;11.884;2023-04-07T17:42:11;11.40;52.10
28835;DHT22;15969;51.536;11.884;2023-04-07T17:44:36;11.30;52.10
28835;DHT22;15969;51.536;11.884;2023-04-07T17:47:02;11.20;51.50
28835;DHT22;15969;51.536;11.884;2023-04-07T17:49:28;11.00;52.30
28835;DHT22;15969;51.536;11.884;2023-04-07T17:51:53;10.90;52.70
28835;DHT22;15969;51.536;11.884;2023-04-07T17:54:19;11.20;53.70
28835;DHT22;15969;51.536;11.884;2023-04-07T17:56:45;11.10;53.30
28835;DHT22;15969;51.536;11.884;2023-04-07T17:59:11;11.20;53.80
28835;DHT22;15969;51.536;11.884;2023-04-07T18:01:36;10.80;54.30
28835;DHT22;15969;51.536;11.884;2023-04-07T18:04:02;10.70;55.10
28835;DHT22;15969;51.536;11.884;2023-04-07T18:06:28;10.90;55.20
28835;DHT22;15969;51.536;11.884;2023-04-07T18:08:54;11.00;55.30